Time;durP1;ratioP1;P1;durP2;ratioP2;P2;SDS_P1;SDS_P2;PMS_P1;PMS_P2;Temp;Humidity;BMP_temperature;BMP_pressure;BME280_temperature;BME280_humidity;BME280_pressure;Samples;Min_cycle;Max_cycle;Signal;HPM_P1;HPM_P2
2022/07/14 00:00:19;;;;;;;1.03;1.03;;;;;;;;;;5052944;28;20198;-80
2022/07/14 00:02:46;;;;;;;4.03;1.30;;;;;;;;;;5053035;28;20202;-80
2022/07/14 00:05:14;;;;;;;1.80;1.20;;;;;;;;;;5052626;28;20228;-80
2022/07/14 00:07:41;;;;;;;1.13;1.13;;;;;;;;;;5053073;28;20275;-80
2022/07/14 00:10:09;;;;;;;1.30;1.20;;;;;;;;;;5052105;28;20283;-80
2022/07/14 00:12:36;;;;;;;1.60;1.50;;;;;;;;;;5053087;28;20552;-80
2022/07/14 00:15:04;;;;;;;1.23;1.07;;;;;;;;;;5052419;28;20666;-79
2022/07/14 00:17:31;;;;;;;1.13;1.13;;;;;;;;;;5052504;28;20209;-79
2022/07/14 00:19:58;;;;;;;2.03;1.13;;;;;;;;;;5052073;28;20198;-79
2022/07/14 00:22:27;;;;;;;5.70;1.50;;;;;;;;;;5052493;28;20225;-80
2022/07/14 00:24:54;;;;;;;1.77;1.20;;;;;;;;;;5052135;28;20233;-80
2022/07/14 00:27:21;;;;;;;4.87;1.20;;;;;;;;;;5052737;28;20198;-80
2022/07/14 00:29:48;;;;;;;3.10;1.40;;;;;;;;;;5051814;28;20225;-80
2022/07/14 00:32:15;;;;;;;2.03;1.20;;;;;;;;;;5052366;28;20205;-80
2022/07/14 00:34:42;;;;;;;2.00;1.77;;;;;;;;;;5052235;28;20202;-80
2022/07/14 00:37:09;;;;;;;3.53;1.40;;;;;;;;;;5052220;28;20621;-81
2022/07/14 00:39:56;;;;;;;2.77;1.30;;;;;;;;;;5051717;28;20248;-80
2022/07/14 00:42:30;;;;;;;1.70;1.20;;;;;;;;;;5052311;28;20196;-80
2022/07/14 00:44:57;;;;;;;0.97;0.97;;;;;;;;;;5051768;28;20258;-80
2022/07/14 00:47:24;;;;;;;1.97;1.40;;;;;;;;;;5052357;28;20592;-80
2022/07/14 00:49:56;;;;;;;1.33;1.03;;;;;;;;;;5051870;28;20225;-81
2022/07/14 00:52:23;;;;;;;2.40;1.20;;;;;;;;;;5052357;28;20566;-81
2022/07/14 00:54:52;;;;;;;1.80;1.40;;;;;;;;;;5051683;28;20202;-80
2022/07/14 00:57:19;;;;;;;1.90;1.23;;;;;;;;;;5051753;28;20255;-81
2022/07/14 00:59:47;;;;;;;1.90;1.27;;;;;;;;;;5051550;28;20189;-80
2022/07/14 01:02:14;;;;;;;6.43;1.60;;;;;;;;;;5052161;28;20284;-81
2022/07/14 01:04:41;;;;;;;3.70;1.63;;;;;;;;;;5051605;28;20201;-82
2022/07/14 01:07:08;;;;;;;1.50;1.40;;;;;;;;;;5051624;28;20206;-81
2022/07/14 01:09:35;;;;;;;3.93;1.40;;;;;;;;;;5051515;28;20236;-80
2022/07/14 01:12:04;;;;;;;2.33;1.40;;;;;;;;;;5052050;28;20613;-80
2022/07/14 01:14:31;;;;;;;3.23;1.40;;;;;;;;;;5051852;28;20213;-81
2022/07/14 01:16:58;;;;;;;1.80;1.30;;;;;;;;;;5051795;28;20678;-81
2022/07/14 01:19:26;;;;;;;2.20;1.40;;;;;;;;;;5041190;28;20655;-81
2022/07/14 01:21:55;;;;;;;2.80;1.37;;;;;;;;;;5031517;28;20245;-81
2022/07/14 01:24:22;;;;;;;1.67;1.20;;;;;;;;;;5031754;28;20286;-81
2022/07/14 01:26:49;;;;;;;1.57;1.47;;;;;;;;;;5031921;28;20198;-81
2022/07/14 01:29:18;;;;;;;1.30;1.20;;;;;;;;;;5031148;28;20223;-81
2022/07/14 01:31:45;;;;;;;1.70;1.20;;;;;;;;;;5032068;28;20663;-81
2022/07/14 01:34:12;;;;;;;1.20;1.20;;;;;;;;;;5031456;28;20745;-81
2022/07/14 01:36:39;;;;;;;2.17;1.40;;;;;;;;;;5031530;28;20209;-81
2022/07/14 01:39:08;;;;;;;1.30;1.23;;;;;;;;;;5031798;28;20626;-81
2022/07/14 01:41:36;;;;;;;1.63;1.23;;;;;;;;;;5031941;28;20229;-81
2022/07/14 01:44:03;;;;;;;11.10;1.60;;;;;;;;;;5031402;28;20206;-80
2022/07/14 01:46:31;;;;;;;5.23;1.33;;;;;;;;;;5031958;28;20260;-81
2022/07/14 01:48:58;;;;;;;1.33;1.23;;;;;;;;;;5031339;28;20216;-81
2022/07/14 01:51:26;;;;;;;0.90;0.90;;;;;;;;;;5029681;28;20202;-78
2022/07/14 01:53:53;;;;;;;1.40;1.30;;;;;;;;;;5011648;28;20683;-80
2022/07/14 01:56:22;;;;;;;4.60;1.50;;;;;;;;;;5011860;28;20269;-80
2022/07/14 01:58:49;;;;;;;1.67;1.17;;;;;;;;;;5017710;28;20731;-82
2022/07/14 02:04:01;;;;;;;1.53;1.43;;;;;;;;;;5030793;28;20205;-80
2022/07/14 02:06:29;;;;;;;1.63;1.10;;;;;;;;;;5031513;28;20201;-81
2022/07/14 02:08:56;;;;;;;1.27;1.20;;;;;;;;;;5030573;28;20249;-81
2022/07/14 02:14:09;;;;;;;1.83;1.60;;;;;;;;;;5011310;28;20233;-81
2022/07/14 02:16:36;;;;;;;5.13;1.50;;;;;;;;;;5014420;28;20239;-80
2022/07/14 02:19:04;;;;;;;1.73;1.50;;;;;;;;;;5015102;28;20275;-82
2022/07/14 02:21:31;;;;;;;2.13;1.33;;;;;;;;;;5014538;28;20210;-81
2022/07/14 02:23:59;;;;;;;1.40;1.30;;;;;;;;;;5015055;28;20208;-82
2022/07/14 02:26:28;;;;;;;2.90;1.37;;;;;;;;;;5014954;28;20198;-80
2022/07/14 02:28:55;;;;;;;1.40;1.30;;;;;;;;;;5014825;28;20206;-81
2022/07/14 02:31:22;;;;;;;1.40;1.30;;;;;;;;;;5014268;28;20231;-80
2022/07/14 02:33:49;;;;;;;1.50;1.20;;;;;;;;;;5014580;28;20566;-81
2022/07/14 02:36:16;;;;;;;1.50;1.40;;;;;;;;;;5014782;28;20254;-83
2022/07/14 02:38:44;;;;;;;14.23;2.03;;;;;;;;;;5014299;28;20201;-79
2022/07/14 02:41:11;;;;;;;1.63;1.53;;;;;;;;;;5014971;28;20688;-82
2022/07/14 02:43:40;;;;;;;2.17;1.97;;;;;;;;;;5014409;28;20206;-81
2022/07/14 02:46:07;;;;;;;1.27;1.20;;;;;;;;;;5026618;28;20206;-80
2022/07/14 02:48:34;;;;;;;2.80;1.50;;;;;;;;;;5033868;28;20200;-81
2022/07/14 02:51:06;;;;;;;1.53;1.30;;;;;;;;;;5034038;28;20278;-82
2022/07/14 02:53:34;;;;;;;3.03;1.47;;;;;;;;;;5033848;28;20233;-82
2022/07/14 02:56:01;;;;;;;2.50;1.17;;;;;;;;;;5033914;28;20220;-80
2022/07/14 02:58:29;;;;;;;2.57;2.17;;;;;;;;;;5034163;28;20619;-81
2022/07/14 03:00:57;;;;;;;2.17;1.47;;;;;;;;;;5034030;28;20274;-81
2022/07/14 03:03:26;;;;;;;4.00;1.80;;;;;;;;;;5032704;28;20206;-81
2022/07/14 03:05:53;;;;;;;1.80;1.53;;;;;;;;;;5033627;28;20232;-81
2022/07/14 03:08:20;;;;;;;6.67;1.67;;;;;;;;;;5033643;28;20235;-81
2022/07/14 03:10:47;;;;;;;1.50;1.33;;;;;;;;;;5033626;28;20217;-80
2022/07/14 03:13:14;;;;;;;3.73;1.20;;;;;;;;;;5033914;28;20249;-79
2022/07/14 03:15:41;;;;;;;1.80;1.20;;;;;;;;;;5033283;28;20202;-80
2022/07/14 03:18:09;;;;;;;1.50;1.40;;;;;;;;;;5034061;28;20328;-80
2022/07/14 03:20:36;;;;;;;2.50;1.60;;;;;;;;;;5033047;28;20196;-80
2022/07/14 03:23:03;;;;;;;1.20;1.10;;;;;;;;;;5034023;28;20254;-80
2022/07/14 03:25:31;;;;;;;2.33;1.30;;;;;;;;;;5033348;28;20586;-80
2022/07/14 03:27:58;;;;;;;3.40;1.13;;;;;;;;;;5033910;28;20296;-80
2022/07/14 03:30:25;;;;;;;2.23;1.47;;;;;;;;;;5034195;28;20295;-80
2022/07/14 03:32:52;;;;;;;1.80;1.40;;;;;;;;;;5033967;28;20209;-80
2022/07/14 03:35:20;;;;;;;1.30;1.30;;;;;;;;;;5033355;28;20620;-80
2022/07/14 03:37:47;;;;;;;1.43;1.33;;;;;;;;;;5033744;28;20202;-80
2022/07/14 03:40:14;;;;;;;3.17;1.67;;;;;;;;;;5033059;28;20627;-81
2022/07/14 03:42:42;;;;;;;3.93;1.93;;;;;;;;;;5032518;28;20205;-80
2022/07/14 03:45:09;;;;;;;3.50;1.40;;;;;;;;;;5033135;28;20200;-80
2022/07/14 03:47:36;;;;;;;1.80;1.70;;;;;;;;;;5031388;28;20208;-81
2022/07/14 03:50:04;;;;;;;1.97;1.57;;;;;;;;;;5032766;28;20225;-81
2022/07/14 03:52:32;;;;;;;2.33;1.40;;;;;;;;;;5033026;28;20199;-80
2022/07/14 03:54:59;;;;;;;3.40;1.80;;;;;;;;;;5033001;28;20666;-80
2022/07/14 03:57:26;;;;;;;2.90;1.47;;;;;;;;;;5033207;28;20687;-81
2022/07/14 03:59:54;;;;;;;2.07;1.47;;;;;;;;;;5033118;28;20201;-80
2022/07/14 04:02:21;;;;;;;4.40;1.60;;;;;;;;;;5033424;28;20197;-81
2022/07/14 04:04:57;;;;;;;2.63;1.60;;;;;;;;;;5033415;28;20197;-93
2022/07/14 04:07:24;;;;;;;1.60;1.50;;;;;;;;;;5033932;28;20229;-94
2022/07/14 04:10:02;;;;;;;3.53;1.40;;;;;;;;;;5033877;28;20649;-94
2022/07/14 04:12:29;;;;;;;4.60;2.10;;;;;;;;;;5033836;28;20275;-95
2022/07/14 04:15:02;;;;;;;4.10;1.83;;;;;;;;;;5038052;28;20283;-95
2022/07/14 04:17:32;;;;;;;3.57;1.40;;;;;;;;;;5035657;28;20206;-96
2022/07/14 04:20:00;;;;;;;2.93;1.70;;;;;;;;;;5036458;28;20736;-96
2022/07/14 04:22:28;;;;;;;1.73;1.40;;;;;;;;;;5038668;28;20199;-96
2022/07/14 04:24:59;;;;;;;7.03;1.40;;;;;;;;;;5042701;28;20198;-96
2022/07/14 04:27:28;;;;;;;1.57;1.33;;;;;;;;;;5038382;28;20204;-96
2022/07/14 04:29:55;;;;;;;1.40;1.30;;;;;;;;;;5033645;28;20645;-96
2022/07/14 04:32:25;;;;;;;2.00;1.20;;;;;;;;;;5038190;28;20196;-96
2022/07/14 04:34:52;;;;;;;2.03;1.67;;;;;;;;;;5037872;28;20208;-95
2022/07/14 04:37:19;;;;;;;3.00;1.77;;;;;;;;;;5034981;28;20201;-95
2022/07/14 04:39:46;;;;;;;1.93;1.80;;;;;;;;;;5034694;28;20204;-96
2022/07/14 04:42:14;;;;;;;3.67;1.67;;;;;;;;;;5036512;28;20200;-96
2022/07/14 04:44:42;;;;;;;2.87;1.67;;;;;;;;;;5034874;28;20201;-94
2022/07/14 04:47:10;;;;;;;2.10;1.90;;;;;;;;;;5033487;28;20262;-94
2022/07/14 04:52:21;;;;;;;3.40;1.63;;;;;;;;;;5036142;28;20185;-95
2022/07/14 04:54:48;;;;;;;7.57;1.97;;;;;;;;;;5035716;28;20260;-93
2022/07/14 04:57:15;;;;;;;3.30;1.40;;;;;;;;;;5033359;28;20205;-94
2022/07/14 04:59:44;;;;;;;1.50;1.40;;;;;;;;;;5033152;28;20201;-94
2022/07/14 05:02:12;;;;;;;1.80;1.50;;;;;;;;;;5033125;28;20729;-93
2022/07/14 05:04:39;;;;;;;1.10;1.10;;;;;;;;;;5033232;28;20272;-96
2022/07/14 05:07:07;;;;;;;3.17;1.50;;;;;;;;;;5033171;28;20202;-95
2022/07/14 05:09:34;;;;;;;1.70;1.60;;;;;;;;;;5032848;28;20655;-94
2022/07/14 05:12:02;;;;;;;2.47;1.30;;;;;;;;;;5033017;28;20222;-96
2022/07/14 05:14:33;;;;;;;1.47;1.37;;;;;;;;;;5035987;28;20185;-96
2022/07/14 05:17:02;;;;;;;2.87;1.57;;;;;;;;;;5033532;28;20198;-96
2022/07/14 05:19:30;;;;;;;1.87;1.40;;;;;;;;;;5037248;28;20622;-96
2022/07/14 05:45:12;;;;;;;3.10;1.23;;;;;;;;;;4973403;28;20221;-96
2022/07/14 05:47:41;;;;;;;3.00;1.27;;;;;;;;;;4974597;28;20255;-94
2022/07/14 05:50:09;;;;;;;2.40;1.30;;;;;;;;;;4976593;28;20205;-95
2022/07/14 05:52:36;;;;;;;2.73;1.20;;;;;;;;;;4977915;28;20200;-96
2022/07/14 05:55:04;;;;;;;1.10;1.10;;;;;;;;;;4977353;28;20208;-96
2022/07/14 05:57:31;;;;;;;3.27;1.40;;;;;;;;;;4977565;28;20677;-96
2022/07/14 05:59:58;;;;;;;4.43;1.67;;;;;;;;;;4977320;28;20197;-96
2022/07/14 06:02:26;;;;;;;3.97;1.43;;;;;;;;;;4977985;28;20240;-96
2022/07/14 06:04:53;;;;;;;1.40;1.30;;;;;;;;;;4977406;28;20201;-96
2022/07/14 06:07:21;;;;;;;2.13;1.20;;;;;;;;;;4978848;28;20227;-95
2022/07/14 06:09:49;;;;;;;6.60;2.50;;;;;;;;;;4979906;28;20200;-93
2022/07/14 06:12:16;;;;;;;1.73;1.53;;;;;;;;;;4977562;28;20575;-95
2022/07/14 06:14:43;;;;;;;2.77;1.50;;;;;;;;;;4977341;28;20205;-94
2022/07/14 06:17:10;;;;;;;1.33;1.23;;;;;;;;;;4976928;28;20208;-95
2022/07/14 06:19:39;;;;;;;2.20;1.33;;;;;;;;;;4962061;28;20202;-93
2022/07/14 06:22:07;;;;;;;3.00;1.80;;;;;;;;;;4958031;29;20304;-94
2022/07/14 06:24:34;;;;;;;1.93;1.50;;;;;;;;;;4973141;28;20256;-95
2022/07/14 06:27:05;;;;;;;2.80;1.50;;;;;;;;;;4976860;28;20201;-93
2022/07/14 06:29:32;;;;;;;2.70;1.30;;;;;;;;;;4977269;28;20185;-90
2022/07/14 06:31:59;;;;;;;1.50;1.40;;;;;;;;;;4978219;28;20247;-92
2022/07/14 06:34:27;;;;;;;1.60;1.27;;;;;;;;;;4977230;28;20208;-94
2022/07/14 06:36:56;;;;;;;1.83;1.73;;;;;;;;;;4975201;28;20212;-94
2022/07/14 06:39:23;;;;;;;1.43;1.33;;;;;;;;;;4957518;28;20249;-94
2022/07/14 06:41:50;;;;;;;3.00;1.80;;;;;;;;;;4957609;28;20590;-93
2022/07/14 06:44:17;;;;;;;1.57;1.47;;;;;;;;;;4957277;28;20237;-93
2022/07/14 06:46:44;;;;;;;3.03;1.53;;;;;;;;;;4971423;28;20213;-92
2022/07/14 06:49:11;;;;;;;1.10;1.10;;;;;;;;;;4976566;28;20232;-93
2022/07/14 06:51:38;;;;;;;1.23;1.20;;;;;;;;;;4976665;28;20721;-92
2022/07/14 06:54:07;;;;;;;1.87;1.40;;;;;;;;;;4976481;28;20264;-92
2022/07/14 06:56:34;;;;;;;1.40;1.30;;;;;;;;;;4975902;28;20240;-94
2022/07/14 06:59:01;;;;;;;1.80;1.70;;;;;;;;;;4976501;28;20636;-93
2022/07/14 07:01:28;;;;;;;1.40;1.13;;;;;;;;;;4976202;28;20256;-92
2022/07/14 07:03:56;;;;;;;2.73;1.47;;;;;;;;;;4976532;28;20231;-93
2022/07/14 07:09:08;;;;;;;1.53;1.40;;;;;;;;;;4956940;29;20197;-95
2022/07/14 07:11:35;;;;;;;3.93;1.20;;;;;;;;;;4957726;29;20229;-96
2022/07/14 07:14:03;;;;;;;2.33;1.00;;;;;;;;;;4957113;28;20205;-94
2022/07/14 07:16:30;;;;;;;0.90;0.90;;;;;;;;;;4959520;28;20283;-95
2022/07/14 07:18:57;;;;;;;13.73;1.70;;;;;;;;;;4976472;28;20267;-90
2022/07/14 07:21:24;;;;;;;1.40;1.30;;;;;;;;;;4976107;28;20204;-90
2022/07/14 07:23:51;;;;;;;1.50;1.40;;;;;;;;;;4976000;28;20201;-94
2022/07/14 07:26:22;;;;;;;2.30;1.10;;;;;;;;;;4976558;28;20202;-89
2022/07/14 07:28:50;;;;;;;1.60;1.30;;;;;;;;;;4975691;28;20190;-90
2022/07/14 07:31:17;;;;;;;1.93;1.70;;;;;;;;;;4976081;28;20316;-91
2022/07/14 07:33:45;;;;;;;1.70;1.60;;;;;;;;;;4975922;28;20204;-90
2022/07/14 07:36:12;;;;;;;1.37;1.27;;;;;;;;;;4976327;28;20267;-92
2022/07/14 07:38:39;;;;;;;2.33;1.10;;;;;;;;;;4975543;28;20201;-90
2022/07/14 07:41:06;;;;;;;1.23;1.10;;;;;;;;;;4975873;28;20263;-89
2022/07/14 07:43:35;;;;;;;2.50;1.20;;;;;;;;;;4975229;28;20229;-88
2022/07/14 07:46:05;;;;;;;2.00;1.10;;;;;;;;;;4975505;28;20222;-89
2022/07/14 07:48:32;;;;;;;1.60;1.30;;;;;;;;;;4975338;28;20260;-89
2022/07/14 07:51:00;;;;;;;1.60;1.20;;;;;;;;;;4975199;28;20271;-95
2022/07/14 07:53:27;;;;;;;2.20;1.10;;;;;;;;;;4975060;28;20209;-93
2022/07/14 07:55:54;;;;;;;1.50;1.20;;;;;;;;;;4975727;28;20666;-90
2022/07/14 07:58:22;;;;;;;1.43;1.33;;;;;;;;;;4975284;28;20205;-89
2022/07/14 08:00:50;;;;;;;1.97;1.27;;;;;;;;;;4957698;28;20613;-89
2022/07/14 08:03:17;;;;;;;1.20;1.10;;;;;;;;;;4975556;28;20205;-91
2022/07/14 08:05:44;;;;;;;1.50;1.40;;;;;;;;;;4975395;28;20201;-89
2022/07/14 08:08:11;;;;;;;0.97;0.90;;;;;;;;;;4975518;28;20201;-89
2022/07/14 08:10:48;;;;;;;1.87;1.07;;;;;;;;;;4975082;28;20260;-91
2022/07/14 08:13:15;;;;;;;1.60;1.50;;;;;;;;;;4955064;28;20241;-92
2022/07/14 08:15:42;;;;;;;4.20;1.47;;;;;;;;;;4964721;28;20193;-93
2022/07/14 08:18:11;;;;;;;1.40;1.30;;;;;;;;;;4963558;28;20202;-93
2022/07/14 08:20:38;;;;;;;1.27;1.10;;;;;;;;;;4960136;28;20196;-93
2022/07/14 08:23:05;;;;;;;1.30;1.00;;;;;;;;;;4970182;28;20741;-91
2022/07/14 08:25:33;;;;;;;1.40;1.30;;;;;;;;;;4955131;28;20555;-93
2022/07/14 08:28:00;;;;;;;2.83;1.20;;;;;;;;;;4956137;29;20305;-93
2022/07/14 08:30:27;;;;;;;1.25;1.15;;;;;;;;;;4955184;29;20663;-91
2022/07/14 08:32:54;;;;;;;3.00;1.20;;;;;;;;;;4955097;29;20317;-92
2022/07/14 08:35:24;;;;;;;1.15;1.05;;;;;;;;;;4955489;28;20209;-92
2022/07/14 08:37:52;;;;;;;1.47;1.37;;;;;;;;;;4956020;29;20229;-91
2022/07/14 08:40:21;;;;;;;0.90;0.90;;;;;;;;;;4955123;28;20193;-92
2022/07/14 08:42:49;;;;;;;0.73;0.73;;;;;;;;;;4955002;28;20710;-91
2022/07/14 08:45:18;;;;;;;3.20;1.07;;;;;;;;;;4955510;28;20194;-92
2022/07/14 08:47:47;;;;;;;1.00;1.00;;;;;;;;;;4955201;28;20633;-92
2022/07/14 08:50:15;;;;;;;0.90;0.90;;;;;;;;;;4955522;28;20261;-91
2022/07/14 08:52:44;;;;;;;0.90;0.90;;;;;;;;;;4954988;28;20225;-90
2022/07/14 08:55:13;;;;;;;1.00;0.90;;;;;;;;;;4955070;29;20190;-91
2022/07/14 08:57:41;;;;;;;0.90;0.90;;;;;;;;;;4955141;29;20689;-92
2022/07/14 09:00:11;;;;;;;2.05;1.10;;;;;;;;;;4955024;28;20701;-91
2022/07/14 09:02:38;;;;;;;1.15;1.10;;;;;;;;;;4954877;28;20260;-92
2022/07/14 09:05:06;;;;;;;3.58;1.60;;;;;;;;;;4954915;29;20190;-90
2022/07/14 09:07:35;;;;;;;1.63;1.30;;;;;;;;;;4954826;28;20257;-92
2022/07/14 09:10:06;;;;;;;2.42;1.30;;;;;;;;;;4954902;29;20194;-91
2022/07/14 09:12:35;;;;;;;2.58;1.05;;;;;;;;;;4954963;28;20253;-92
2022/07/14 09:17:53;;;;;;;0.90;0.90;;;;;;;;;;4955437;29;20333;-91
2022/07/14 09:20:21;;;;;;;4.28;1.00;;;;;;;;;;4954649;28;20220;-91
2022/07/14 09:22:49;;;;;;;2.75;1.27;;;;;;;;;;4955243;29;20726;-92
2022/07/14 09:25:18;;;;;;;1.08;1.02;;;;;;;;;;4957476;28;20285;-91
2022/07/14 09:27:47;;;;;;;1.35;1.20;;;;;;;;;;4958850;28;20737;-91
2022/07/14 09:30:15;;;;;;;3.10;1.17;;;;;;;;;;4958990;28;20202;-92
2022/07/14 09:32:43;;;;;;;1.02;1.02;;;;;;;;;;4958375;29;20729;-91
2022/07/14 09:35:11;;;;;;;1.27;1.17;;;;;;;;;;4958754;28;20257;-92
2022/07/14 09:37:39;;;;;;;2.20;1.08;;;;;;;;;;4959077;28;20202;-90
2022/07/14 09:40:11;;;;;;;1.75;1.10;;;;;;;;;;4958617;28;20206;-91
2022/07/14 09:42:54;;;;;;;4.63;1.30;;;;;;;;;;4958984;28;20643;-92
2022/07/14 09:45:22;;;;;;;2.70;1.02;;;;;;;;;;4958494;29;20275;-92
2022/07/14 09:47:58;;;;;;;0.93;0.93;;;;;;;;;;4958369;29;20194;-91
2022/07/14 09:50:47;;;;;;;1.10;1.10;;;;;;;;;;4958567;28;20249;-91
2022/07/14 09:53:17;;;;;;;1.38;1.10;;;;;;;;;;4958064;29;20218;-92
2022/07/14 09:55:51;;;;;;;2.25;1.50;;;;;;;;;;4958165;29;20194;-91
2022/07/14 09:58:21;;;;;;;1.42;1.10;;;;;;;;;;4958120;29;20197;-92
2022/07/14 10:00:55;;;;;;;1.73;1.20;;;;;;;;;;4958411;28;20234;-91
2022/07/14 10:03:23;;;;;;;4.25;1.20;;;;;;;;;;4958017;28;20186;-92
2022/07/14 10:05:52;;;;;;;1.83;1.60;;;;;;;;;;4958359;28;20197;-91
2022/07/14 10:08:20;;;;;;;7.82;1.83;;;;;;;;;;4958021;29;20204;-92
2022/07/14 10:10:47;;;;;;;1.20;1.10;;;;;;;;;;4958022;28;20198;-92
2022/07/14 10:13:16;;;;;;;1.15;1.10;;;;;;;;;;4957576;28;20306;-92
2022/07/14 10:15:45;;;;;;;2.17;1.00;;;;;;;;;;4957773;28;20198;-91
2022/07/14 10:18:13;;;;;;;1.40;1.30;;;;;;;;;;4959435;28;20253;-92
2022/07/14 10:20:40;;;;;;;1.02;1.02;;;;;;;;;;4957985;28;20586;-92
2022/07/14 10:23:07;;;;;;;6.97;1.33;;;;;;;;;;4957791;29;20197;-92
2022/07/14 10:25:34;;;;;;;2.55;1.15;;;;;;;;;;4957995;28;20198;-92
2022/07/14 10:28:02;;;;;;;1.30;1.20;;;;;;;;;;4957882;28;20233;-92
2022/07/14 10:30:37;;;;;;;0.90;0.90;;;;;;;;;;4957669;28;20201;-93
2022/07/14 10:33:08;;;;;;;1.80;1.20;;;;;;;;;;4957877;28;20214;-92
2022/07/14 10:35:54;;;;;;;2.60;1.10;;;;;;;;;;4957000;28;20293;-92
2022/07/14 10:38:33;;;;;;;1.60;1.10;;;;;;;;;;4957944;28;20190;-91
2022/07/14 10:41:06;;;;;;;1.42;1.27;;;;;;;;;;4957375;29;20190;-93
2022/07/14 10:43:44;;;;;;;2.95;1.10;;;;;;;;;;4957123;28;20239;-93
2022/07/14 10:46:11;;;;;;;1.30;1.20;;;;;;;;;;4957637;28;20186;-90
2022/07/14 10:48:40;;;;;;;1.23;1.17;;;;;;;;;;4957585;29;20810;-93
2022/07/14 10:51:17;;;;;;;1.45;1.05;;;;;;;;;;4957157;29;20198;-92
2022/07/14 10:54:00;;;;;;;2.40;1.42;;;;;;;;;;4957036;28;20608;-92
2022/07/14 10:56:27;;;;;;;1.65;1.00;;;;;;;;;;4957554;29;20190;-93
2022/07/14 10:59:28;;;;;;;0.95;0.95;;;;;;;;;;4957364;28;20198;-92
2022/07/14 11:02:36;;;;;;;1.52;1.10;;;;;;;;;;4957299;28;20206;-91
2022/07/14 11:05:14;;;;;;;0.98;0.98;;;;;;;;;;4957212;29;20190;-93
2022/07/14 11:07:45;;;;;;;1.35;1.25;;;;;;;;;;4957277;29;20194;-92
2022/07/14 11:11:08;;;;;;;1.90;1.35;;;;;;;;;;4957065;29;20197;-92
2022/07/14 11:13:36;;;;;;;1.90;1.27;;;;;;;;;;4956722;28;20221;-91
2022/07/14 11:16:04;;;;;;;2.65;1.10;;;;;;;;;;4956713;29;20198;-93
2022/07/14 11:18:35;;;;;;;2.55;1.73;;;;;;;;;;4956758;29;20193;-93
2022/07/14 11:21:08;;;;;;;1.35;1.25;;;;;;;;;;4956683;29;20225;-92
2022/07/14 11:23:37;;;;;;;1.25;1.17;;;;;;;;;;4957002;28;20241;-92
2022/07/14 11:26:05;;;;;;;1.30;1.20;;;;;;;;;;4956903;28;20202;-92
2022/07/14 11:28:42;;;;;;;4.10;1.13;;;;;;;;;;4956813;28;20201;-92
2022/07/14 11:31:11;;;;;;;3.13;0.90;;;;;;;;;;4956774;29;20285;-93
2022/07/14 11:36:17;;;;;;;3.65;1.63;;;;;;;;;;4956628;28;20240;-91
2022/07/14 11:36:30;;;;;;;1.30;1.20;;;;;;;;;;4956417;29;20186;-91
2022/07/14 11:39:23;;;;;;;1.10;0.98;;;;;;;;;;4956516;28;20205;-93
2022/07/14 11:41:53;;;;;;;1.42;1.05;;;;;;;;;;4956147;28;20234;-92
2022/07/14 11:44:49;;;;;;;2.35;1.10;;;;;;;;;;4955976;28;20300;-92
2022/07/14 11:47:18;;;;;;;2.20;1.15;;;;;;;;;;4956432;28;20229;-91
2022/07/14 11:49:53;;;;;;;4.10;1.20;;;;;;;;;;4956238;28;20205;-90
2022/07/14 11:52:29;;;;;;;2.00;1.35;;;;;;;;;;4956604;28;20300;-92
2022/07/14 11:54:56;;;;;;;0.90;0.90;;;;;;;;;;4956384;28;20268;-92
2022/07/14 11:57:24;;;;;;;1.30;1.20;;;;;;;;;;4956250;28;20241;-91
2022/07/14 11:59:53;;;;;;;1.08;1.08;;;;;;;;;;4955917;28;20225;-91
2022/07/14 12:02:22;;;;;;;1.83;1.50;;;;;;;;;;4955765;28;20766;-92
2022/07/14 12:04:51;;;;;;;1.08;0.98;;;;;;;;;;4955731;28;20197;-92
2022/07/14 12:07:18;;;;;;;3.28;1.23;;;;;;;;;;4955710;29;20201;-92
2022/07/14 12:09:47;;;;;;;1.98;1.75;;;;;;;;;;4955673;29;20198;-92
2022/07/14 12:12:15;;;;;;;2.72;1.23;;;;;;;;;;4955596;29;20685;-92
2022/07/14 12:14:46;;;;;;;1.33;1.20;;;;;;;;;;4955870;29;20202;-91
2022/07/14 12:17:14;;;;;;;0.80;0.80;;;;;;;;;;4955966;29;20206;-90
2022/07/14 12:19:41;;;;;;;1.10;1.10;;;;;;;;;;4955572;28;20201;-91
2022/07/14 12:22:09;;;;;;;3.60;1.10;;;;;;;;;;4955698;28;20233;-90
2022/07/14 12:24:36;;;;;;;2.42;2.20;;;;;;;;;;4955737;28;20198;-92
2022/07/14 12:27:06;;;;;;;3.67;1.20;;;;;;;;;;4955665;28;20642;-91
2022/07/14 12:29:35;;;;;;;1.13;1.08;;;;;;;;;;4970211;28;20244;-92
2022/07/14 12:32:02;;;;;;;1.90;1.05;;;;;;;;;;4974712;28;20626;-92
2022/07/14 12:34:30;;;;;;;1.30;1.20;;;;;;;;;;4974953;28;20284;-91
2022/07/14 12:36:58;;;;;;;1.48;1.10;;;;;;;;;;4973864;28;20197;-91
2022/07/14 12:39:26;;;;;;;1.10;1.00;;;;;;;;;;4974670;28;20232;-92
2022/07/14 12:41:53;;;;;;;1.23;1.13;;;;;;;;;;4974930;28;20561;-91
2022/07/14 12:44:21;;;;;;;1.88;1.00;;;;;;;;;;4974485;28;20784;-92
2022/07/14 12:47:06;;;;;;;1.73;1.63;;;;;;;;;;4974578;28;20666;-92
2022/07/14 12:49:43;;;;;;;1.35;0.90;;;;;;;;;;4974342;28;20196;-92
2022/07/14 12:52:10;;;;;;;3.42;1.10;;;;;;;;;;4974821;28;20630;-90
2022/07/14 12:54:37;;;;;;;1.27;1.10;;;;;;;;;;4974482;28;20193;-94
2022/07/14 13:12:38;;;;;;;1.20;1.10;;;;;;;;;;5105628;23;20234;-78
2022/07/14 13:15:08;;;;;;;1.58;1.10;;;;;;;;;;5022763;28;20217;-76
2022/07/14 13:17:57;;;;;;;1.35;1.23;;;;;;;;;;5018629;28;20687;-76
2022/07/14 13:20:52;;;;;;;2.28;1.10;;;;;;;;;;5019061;28;20211;-76
2022/07/14 13:23:28;;;;;;;1.08;1.08;;;;;;;;;;5029560;28;20209;-75
2022/07/14 13:25:57;;;;;;;1.30;1.10;;;;;;;;;;5029286;28;20214;-76
2022/07/14 13:28:32;;;;;;;1.27;1.10;;;;;;;;;;5029976;28;20635;-76
2022/07/14 13:30:59;;;;;;;1.10;1.00;;;;;;;;;;5030321;28;20209;-74
2022/07/14 13:33:26;;;;;;;1.30;1.10;;;;;;;;;;5030015;28;20222;-75
2022/07/14 13:35:54;;;;;;;0.93;0.90;;;;;;;;;;5030139;28;20241;-74
2022/07/14 13:38:21;;;;;;;1.98;0.90;;;;;;;;;;5030532;28;20218;-74
2022/07/14 13:40:48;;;;;;;3.17;1.52;;;;;;;;;;5030305;28;20715;-74
2022/07/14 13:43:15;;;;;;;1.00;1.00;;;;;;;;;;5030493;28;20703;-74
2022/07/14 13:45:43;;;;;;;1.15;1.05;;;;;;;;;;5029840;28;20206;-74
2022/07/14 13:48:09;;;;;;;88.85;16.52;;;;;;;;;;5030303;28;20206;-74
2022/07/14 13:53:21;;;;;;;4.25;1.80;;;;;;;;;;5029887;28;20233;-74
2022/07/14 13:55:57;;;;;;;1.83;1.25;;;;;;;;;;5029044;28;20238;-73
2022/07/14 13:58:28;;;;;;;0.90;0.90;;;;;;;;;;5026778;28;20197;-73
2022/07/14 14:00:58;;;;;;;1.75;1.10;;;;;;;;;;4994832;28;20210;-75
2022/07/14 14:03:26;;;;;;;0.90;0.90;;;;;;;;;;5029514;28;20210;-75
2022/07/14 14:05:54;;;;;;;2.05;1.38;;;;;;;;;;5012694;28;20203;-74
2022/07/14 14:08:21;;;;;;;3.13;1.35;;;;;;;;;;5030238;28;20198;-75
2022/07/14 14:10:47;;;;;;;1.05;1.05;;;;;;;;;;5030056;28;20253;-74
2022/07/14 14:13:15;;;;;;;7.57;3.72;;;;;;;;;;5033749;28;20277;-74
2022/07/14 14:15:42;;;;;;;1.13;1.05;;;;;;;;;;5032655;28;20210;-75
2022/07/14 14:18:10;;;;;;;1.88;1.75;;;;;;;;;;5032059;28;20194;-74
2022/07/14 14:20:37;;;;;;;3.97;2.72;;;;;;;;;;5014694;28;20688;-74
2022/07/14 14:23:05;;;;;;;1.20;1.17;;;;;;;;;;5033139;28;20210;-75
2022/07/14 14:25:32;;;;;;;1.67;1.55;;;;;;;;;;5032146;28;20212;-74
2022/07/14 14:27:59;;;;;;;2.00;1.20;;;;;;;;;;5031961;28;20576;-75
2022/07/14 14:30:26;;;;;;;1.30;1.20;;;;;;;;;;5032041;28;20756;-77
2022/07/14 14:32:53;;;;;;;1.45;1.20;;;;;;;;;;5011844;28;20203;-75
2022/07/14 14:35:21;;;;;;;2.60;1.40;;;;;;;;;;5012196;28;20212;-75
2022/07/14 14:37:48;;;;;;;1.85;1.40;;;;;;;;;;5012417;28;20588;-74
2022/07/14 14:40:15;;;;;;;1.42;1.33;;;;;;;;;;5012921;28;20215;-74
2022/07/14 14:42:42;;;;;;;2.55;1.67;;;;;;;;;;5017428;28;20232;-75
2022/07/14 14:45:11;;;;;;;1.98;1.88;;;;;;;;;;5031831;28;20596;-75
2022/07/14 14:47:38;;;;;;;1.20;1.10;;;;;;;;;;5031289;28;20206;-75
2022/07/14 14:50:06;;;;;;;1.35;1.25;;;;;;;;;;5031528;28;20210;-76
2022/07/14 14:52:34;;;;;;;1.95;1.27;;;;;;;;;;5031818;28;20202;-75
2022/07/14 14:55:01;;;;;;;1.48;1.38;;;;;;;;;;5031360;28;20281;-74
2022/07/14 14:57:28;;;;;;;2.80;2.55;;;;;;;;;;5031560;28;20242;-73
2022/07/14 14:59:55;;;;;;;0.93;0.93;;;;;;;;;;5032718;28;20210;-73
2022/07/14 15:02:27;;;;;;;1.48;1.38;;;;;;;;;;5033019;28;20210;-85
2022/07/14 15:04:54;;;;;;;1.63;1.52;;;;;;;;;;5033257;28;20203;-82
2022/07/14 15:07:20;;;;;;;1.27;1.17;;;;;;;;;;5033381;28;20207;-81
2022/07/14 15:09:50;;;;;;;1.90;1.45;;;;;;;;;;5033378;28;20207;-83
2022/07/14 15:12:17;;;;;;;1.27;1.15;;;;;;;;;;5033134;28;20253;-78
2022/07/14 15:14:44;;;;;;;1.38;1.27;;;;;;;;;;5032878;28;20222;-83
2022/07/14 15:17:11;;;;;;;1.70;1.20;;;;;;;;;;5032291;28;20684;-82
2022/07/14 15:19:38;;;;;;;2.35;1.50;;;;;;;;;;5032481;28;20634;-83
2022/07/14 15:22:05;;;;;;;5.47;3.90;;;;;;;;;;5032045;28;20202;-82
2022/07/14 15:24:32;;;;;;;1.10;1.10;;;;;;;;;;5032888;28;20225;-83
2022/07/14 15:27:00;;;;;;;9.07;1.85;;;;;;;;;;5032019;28;20256;-83
2022/07/14 15:29:27;;;;;;;3.78;1.50;;;;;;;;;;5032601;28;20202;-82
2022/07/14 15:32:24;;;;;;;1.02;0.93;;;;;;;;;;5032224;28;20199;-82
2022/07/14 15:34:51;;;;;;;1.67;1.55;;;;;;;;;;5031588;28;20218;-82
2022/07/14 15:37:18;;;;;;;1.80;1.40;;;;;;;;;;5031213;28;20203;-82
2022/07/14 15:42:30;;;;;;;1.20;1.10;;;;;;;;;;5031674;28;20213;-81
2022/07/14 15:45:00;;;;;;;1.75;1.20;;;;;;;;;;5031613;28;20206;-81
2022/07/14 15:47:27;;;;;;;1.40;1.30;;;;;;;;;;5032152;28;20218;-82
2022/07/14 15:49:53;;;;;;;2.45;1.80;;;;;;;;;;5031506;28;20225;-81
2022/07/14 15:52:20;;;;;;;5.18;2.72;;;;;;;;;;5031766;28;21023;-81